Time;durP1;ratioP1;P1;durP2;ratioP2;P2;SDS_P1;SDS_P2;PMS_P1;PMS_P2;Temp;Humidity;BMP_temperature;BMP_pressure;BME280_temperature;BME280_humidity;BME280_pressure;Samples;Min_cycle;Max_cycle;Signal;HPM_P1;HPM_P2
2024/03/27 00:00:23;;;;;;;2.95;1.80;;;23.60;45.00;;;;;;5071106;28;20060;-63
2024/03/27 00:02:49;;;;;;;2.47;1.60;;;23.60;45.10;;;;;;5051264;28;20039;-62
2024/03/27 00:05:17;;;;;;;3.03;1.98;;;23.50;45.00;;;;;;5053173;28;20028;-62
2024/03/27 00:07:43;;;;;;;3.17;1.80;;;23.50;45.00;;;;;;5070613;28;20033;-62
2024/03/27 00:10:09;;;;;;;2.88;1.80;;;23.50;45.10;;;;;;5061277;28;20035;-63
2024/03/27 00:12:34;;;;;;;2.90;1.80;;;23.50;45.10;;;;;;5070369;28;20024;-62
2024/03/27 00:15:01;;;;;;;2.65;1.83;;;23.50;45.10;;;;;;5070732;28;20541;-63
2024/03/27 00:17:27;;;;;;;2.63;1.67;;;23.50;45.10;;;;;;5069355;28;20027;-62
2024/03/27 00:19:52;;;;;;;2.75;1.83;;;23.50;45.10;;;;;;5070753;28;20028;-63
2024/03/27 00:22:18;;;;;;;2.95;1.73;;;23.50;45.10;;;;;;5070498;28;20036;-63
2024/03/27 00:24:44;;;;;;;2.58;1.80;;;23.40;45.00;;;;;;5070689;28;20056;-62
2024/03/27 00:27:09;;;;;;;2.88;1.83;;;23.40;45.00;;;;;;5070421;28;20033;-62
2024/03/27 00:29:35;;;;;;;3.97;1.90;;;23.40;45.00;;;;;;5070527;28;20070;-62
2024/03/27 00:32:00;;;;;;;2.17;1.55;;;23.40;45.00;;;;;;5069629;28;20111;-62
2024/03/27 00:34:26;;;;;;;2.58;1.73;;;23.40;45.00;;;;;;5070533;28;20138;-62
2024/03/27 00:36:53;;;;;;;3.00;1.65;;;23.40;45.00;;;;;;5069631;28;20140;-62
2024/03/27 00:39:18;;;;;;;2.42;1.65;;;23.40;45.00;;;;;;5070222;28;20039;-62
2024/03/27 00:41:44;;;;;;;2.70;1.77;;;23.30;45.00;;;;;;5070275;28;20028;-62
2024/03/27 00:44:09;;;;;;;3.00;1.50;;;23.30;45.00;;;;;;5070301;28;20070;-61
2024/03/27 00:46:35;;;;;;;2.38;1.60;;;23.30;45.00;;;;;;5069195;28;20497;-62
2024/03/27 00:49:04;;;;;;;3.03;1.70;;;23.30;45.00;;;;;;5070395;28;20016;-62
2024/03/27 00:51:29;;;;;;;2.65;1.50;;;23.30;45.00;;;;;;5069812;28;20047;-62
2024/03/27 00:53:55;;;;;;;2.63;1.77;;;23.30;45.00;;;;;;5070437;28;20028;-63
2024/03/27 00:56:22;;;;;;;2.47;1.50;;;23.30;45.00;;;;;;5069924;28;20036;-62
2024/03/27 00:58:48;;;;;;;3.20;1.80;;;23.20;45.00;;;;;;5069411;28;20020;-62
2024/03/27 01:01:13;;;;;;;3.30;1.65;;;23.20;45.00;;;;;;5068890;28;20035;-62
2024/03/27 01:03:39;;;;;;;2.50;1.55;;;23.20;45.00;;;;;;5069778;28;20032;-62
2024/03/27 01:06:05;;;;;;;2.50;1.70;;;23.20;45.00;;;;;;5069790;28;20132;-63
2024/03/27 01:08:30;;;;;;;2.50;1.75;;;23.20;45.00;;;;;;5069538;28;20074;-62
2024/03/27 01:10:56;;;;;;;2.60;1.70;;;23.10;45.00;;;;;;5069737;28;20667;-62
2024/03/27 01:13:22;;;;;;;2.53;1.80;;;23.20;45.00;;;;;;5069812;28;20491;-63
2024/03/27 01:15:49;;;;;;;2.17;1.50;;;23.10;45.00;;;;;;5069828;28;20131;-62
2024/03/27 01:18:14;;;;;;;3.05;1.80;;;23.10;45.10;;;;;;5068803;28;20040;-62
2024/03/27 01:20:40;;;;;;;2.95;1.58;;;23.10;45.00;;;;;;5069556;28;20365;-63
2024/03/27 01:23:05;;;;;;;2.90;1.90;;;23.10;45.10;;;;;;5069432;28;20024;-62
2024/03/27 01:25:31;;;;;;;2.60;1.60;;;23.00;45.00;;;;;;5069526;28;20571;-62
2024/03/27 01:27:57;;;;;;;3.45;1.77;;;23.00;45.00;;;;;;5069442;28;20032;-63
2024/03/27 01:30:22;;;;;;;2.92;1.70;;;23.00;45.00;;;;;;5069358;28;20130;-62
2024/03/27 01:32:48;;;;;;;2.47;1.67;;;23.00;45.10;;;;;;5068533;28;20427;-62
2024/03/27 01:35:13;;;;;;;2.65;1.73;;;23.00;45.10;;;;;;5069302;28;20054;-62
2024/03/27 01:37:39;;;;;;;2.28;1.58;;;22.90;45.00;;;;;;5068729;28;20139;-62
2024/03/27 01:40:05;;;;;;;2.47;1.58;;;23.00;45.10;;;;;;5069425;28;20399;-65
2024/03/27 01:42:34;;;;;;;3.67;1.90;;;22.90;45.10;;;;;;5069200;28;20119;-65
2024/03/27 01:45:01;;;;;;;2.63;1.70;;;22.90;45.10;;;;;;5068820;28;20051;-64
2024/03/27 01:47:27;;;;;;;2.50;1.67;;;22.90;45.10;;;;;;5068167;28;20507;-65
2024/03/27 01:49:53;;;;;;;2.40;1.60;;;22.80;45.10;;;;;;5068364;28;20025;-62
2024/03/27 01:52:19;;;;;;;2.67;1.80;;;22.80;45.10;;;;;;5068451;28;20023;-61
2024/03/27 01:54:44;;;;;;;2.78;1.80;;;22.80;45.10;;;;;;5069045;28;20033;-62
2024/03/27 01:57:10;;;;;;;2.08;1.52;;;22.80;45.10;;;;;;5068848;28;20082;-63
2024/03/27 01:59:36;;;;;;;2.80;1.48;;;22.80;45.10;;;;;;5068783;28;20024;-62
2024/03/27 02:02:03;;;;;;;2.70;1.70;;;22.80;45.10;;;;;;5067852;28;20035;-63
2024/03/27 02:04:29;;;;;;;2.28;1.60;;;22.80;45.10;;;;;;5069308;28;20524;-62
2024/03/27 02:06:55;;;;;;;2.75;1.83;;;22.80;45.20;;;;;;5068585;28;20036;-63
2024/03/27 02:09:22;;;;;;;2.40;1.60;;;22.80;45.20;;;;;;5050521;28;20032;-62
2024/03/27 02:11:47;;;;;;;2.60;1.60;;;22.70;45.10;;;;;;5069022;28;20560;-62
2024/03/27 02:14:14;;;;;;;2.22;1.50;;;22.70;45.20;;;;;;5068576;28;20036;-63
2024/03/27 02:16:41;;;;;;;2.08;1.50;;;22.70;45.20;;;;;;5056586;28;20440;-62
2024/03/27 02:19:07;;;;;;;2.50;1.80;;;22.70;45.20;;;;;;5050063;28;20090;-62
2024/03/27 02:21:36;;;;;;;2.40;1.63;;;22.70;45.30;;;;;;5034118;28;20442;-61
2024/03/27 02:24:02;;;;;;;;;;;22.70;45.20;;;;;;5068795;28;20107;-62
2024/03/27 02:26:38;;;;;;;2.58;1.50;;;22.70;45.20;;;;;;5068947;28;20011;-62
2024/03/27 02:29:04;;;;;;;2.70;1.60;;;22.70;45.30;;;;;;5068149;28;20035;-62
2024/03/27 02:31:30;;;;;;;2.83;1.60;;;22.70;45.30;;;;;;5068705;28;20029;-62
2024/03/27 02:33:55;;;;;;;2.28;1.60;;;22.60;45.20;;;;;;5067461;28;20033;-62
2024/03/27 02:36:21;;;;;;;2.83;1.67;;;22.60;45.20;;;;;;5068458;28;20040;-62
2024/03/27 02:38:47;;;;;;;2.70;1.50;;;22.60;45.20;;;;;;5068161;28;20091;-62
2024/03/27 02:41:13;;;;;;;1.98;1.45;;;22.60;45.30;;;;;;5068014;28;20036;-62
2024/03/27 02:43:38;;;;;;;2.25;1.40;;;22.60;45.30;;;;;;5068563;28;20385;-62
2024/03/27 02:46:04;;;;;;;2.42;1.50;;;22.60;45.30;;;;;;5068377;28;20357;-62
2024/03/27 02:48:30;;;;;;;2.33;1.52;;;22.60;45.30;;;;;;5067282;28;20081;-62
2024/03/27 02:50:55;;;;;;;2.28;1.40;;;22.50;45.30;;;;;;5068491;28;20425;-62
2024/03/27 02:53:21;;;;;;;2.33;1.50;;;22.50;45.30;;;;;;5067762;28;20028;-63
2024/03/27 02:55:50;;;;;;;2.25;1.45;;;22.50;45.30;;;;;;5068378;28;20080;-62
2024/03/27 02:58:15;;;;;;;2.25;1.35;;;22.50;45.30;;;;;;5068441;28;20024;-62
2024/03/27 03:00:41;;;;;;;2.00;1.20;;;22.50;45.30;;;;;;5070678;28;20492;-62
2024/03/27 03:03:07;;;;;;;2.22;1.40;;;22.50;45.30;;;;;;5071103;28;20380;-62
2024/03/27 03:05:32;;;;;;;2.00;1.40;;;22.40;45.30;;;;;;5053883;28;20028;-62
2024/03/27 03:07:58;;;;;;;2.30;1.50;;;22.50;45.40;;;;;;5071217;28;20515;-62
2024/03/27 03:10:26;;;;;;;2.00;1.35;;;22.40;45.40;;;;;;5072248;28;20033;-61
2024/03/27 03:12:52;;;;;;;2.08;1.33;;;22.40;45.30;;;;;;5072360;28;20398;-61
2024/03/27 03:15:17;;;;;;;2.78;1.58;;;22.40;45.40;;;;;;5071389;28;20120;-62
2024/03/27 03:17:43;;;;;;;2.20;1.42;;;22.40;45.40;;;;;;5070998;28;20021;-62
2024/03/27 03:20:09;;;;;;;2.10;1.40;;;22.40;45.40;;;;;;5072272;28;20033;-63
2024/03/27 03:22:35;;;;;;;2.50;1.58;;;22.40;45.40;;;;;;5071492;28;20043;-62
2024/03/27 03:25:01;;;;;;;1.95;1.25;;;22.40;45.40;;;;;;5071731;28;20029;-61
2024/03/27 03:27:26;;;;;;;2.00;1.40;;;22.30;45.40;;;;;;5071555;28;20060;-62
2024/03/27 03:29:52;;;;;;;2.15;1.30;;;22.40;45.50;;;;;;5071762;28;20484;-62
2024/03/27 03:32:17;;;;;;;2.28;1.30;;;22.30;45.40;;;;;;5070534;28;20036;-62
2024/03/27 03:34:44;;;;;;;2.28;1.40;;;22.30;45.40;;;;;;5071756;28;20021;-62
2024/03/27 03:37:10;;;;;;;2.17;1.40;;;22.30;45.40;;;;;;5071783;28;20032;-62
2024/03/27 03:39:36;;;;;;;2.03;1.30;;;22.30;45.40;;;;;;5070778;28;20400;-62
2024/03/27 03:42:02;;;;;;;1.70;1.25;;;22.30;45.50;;;;;;5071445;28;20036;-62
2024/03/27 03:44:27;;;;;;;1.80;1.25;;;22.30;45.50;;;;;;5071398;28;20036;-62
2024/03/27 03:46:53;;;;;;;2.53;1.40;;;22.30;45.50;;;;;;5071476;28;20503;-62
2024/03/27 03:49:19;;;;;;;2.20;1.23;;;22.30;45.50;;;;;;5061992;28;20032;-63
2024/03/27 03:51:44;;;;;;;2.13;1.30;;;22.30;45.50;;;;;;5071329;28;20495;-62
2024/03/27 03:54:10;;;;;;;2.67;1.48;;;22.20;45.50;;;;;;5071019;28;20025;-62
2024/03/27 03:56:35;;;;;;;2.30;1.48;;;22.30;45.80;;;;;;5071230;28;20037;-62
2024/03/27 03:59:01;;;;;;;2.28;1.40;;;22.20;45.50;;;;;;5071307;28;20029;-62
2024/03/27 04:01:27;;;;;;;2.08;1.38;;;22.20;45.50;;;;;;5071080;28;20047;-61
2024/03/27 04:03:53;;;;;;;2.05;1.30;;;22.20;45.60;;;;;;5069865;28;20594;-62
2024/03/27 04:06:18;;;;;;;1.77;1.17;;;22.20;45.50;;;;;;5071260;28;20123;-62
2024/03/27 04:08:44;;;;;;;2.10;1.25;;;22.20;45.50;;;;;;5070598;28;20028;-62
2024/03/27 04:11:10;;;;;;;2.42;1.48;;;22.20;45.50;;;;;;5070186;28;20036;-62
2024/03/27 04:13:35;;;;;;;2.38;1.40;;;22.20;45.50;;;;;;5070797;28;20043;-63
2024/03/27 04:16:02;;;;;;;2.08;1.30;;;22.20;45.60;;;;;;5070622;28;20476;-62
2024/03/27 04:18:28;;;;;;;1.73;1.17;;;22.10;45.50;;;;;;5069562;28;20070;-62
2024/03/27 04:20:53;;;;;;;2.17;1.33;;;22.20;45.60;;;;;;5070755;28;20025;-61
2024/03/27 04:23:19;;;;;;;2.10;1.40;;;22.10;45.50;;;;;;5070488;28;20025;-62
2024/03/27 04:25:51;;;;;;;2.50;1.35;;;22.10;45.50;;;;;;5070771;28;20499;-62
2024/03/27 04:28:17;;;;;;;2.50;1.65;;;22.10;45.50;;;;;;5069955;28;20024;-62
2024/03/27 04:30:43;;;;;;;1.90;1.30;;;22.10;45.50;;;;;;5070518;28;20024;-62
2024/03/27 04:33:12;;;;;;;1.60;1.15;;;22.10;45.60;;;;;;5068845;28;20024;-62
2024/03/27 04:35:38;;;;;;;1.73;1.20;;;22.10;45.60;;;;;;5070388;28;20082;-62
2024/03/27 04:38:04;;;;;;;1.92;1.30;;;22.10;45.60;;;;;;5069620;28;20039;-62
2024/03/27 04:40:30;;;;;;;2.22;1.30;;;22.10;45.60;;;;;;5070343;28;20047;-62
2024/03/27 04:42:55;;;;;;;1.60;1.20;;;22.10;45.60;;;;;;5070236;28;20115;-62
2024/03/27 04:45:21;;;;;;;2.00;1.30;;;22.10;45.60;;;;;;5070232;28;20028;-62
2024/03/27 04:47:47;;;;;;;1.80;1.10;;;22.00;45.60;;;;;;5070011;28;20032;-62
2024/03/27 04:50:13;;;;;;;1.80;1.20;;;22.10;45.60;;;;;;5069295;28;20046;-62
2024/03/27 04:52:39;;;;;;;2.30;1.15;;;22.00;45.60;;;;;;5070142;28;20488;-62
2024/03/27 04:55:05;;;;;;;1.83;1.23;;;22.00;45.60;;;;;;5069560;28;20025;-62
2024/03/27 04:57:31;;;;;;;1.65;1.10;;;22.00;45.60;;;;;;5070034;28;20028;-62
2024/03/27 04:59:57;;;;;;;1.85;1.23;;;22.00;45.60;;;;;;5069728;28;20119;-63
2024/03/27 05:02:24;;;;;;;1.50;1.08;;;22.00;45.60;;;;;;5069924;28;20149;-62
2024/03/27 05:04:51;;;;;;;2.03;1.27;;;22.00;45.70;;;;;;5068386;28;20032;-62
2024/03/27 05:07:17;;;;;;;1.58;1.20;;;22.00;45.70;;;;;;5070027;28;20056;-62
2024/03/27 05:09:43;;;;;;;1.55;1.20;;;22.00;45.70;;;;;;5068996;28;20024;-62
2024/03/27 05:12:10;;;;;;;1.65;1.20;;;22.00;45.70;;;;;;5069762;28;20039;-62
2024/03/27 05:14:36;;;;;;;1.70;1.20;;;21.90;45.70;;;;;;5069487;28;20036;-62
2024/03/27 05:17:02;;;;;;;1.88;1.25;;;22.00;45.70;;;;;;5069550;28;20035;-62
2024/03/27 05:19:28;;;;;;;2.38;1.40;;;21.90;45.60;;;;;;5068339;28;20028;-62
2024/03/27 05:21:53;;;;;;;1.95;1.15;;;21.90;45.70;;;;;;5069487;28;20028;-62
2024/03/27 05:24:19;;;;;;;1.63;1.15;;;21.90;45.70;;;;;;5069009;28;20112;-62
2024/03/27 05:26:49;;;;;;;1.98;1.10;;;21.90;45.70;;;;;;5069488;28;20082;-62
2024/03/27 05:29:15;;;;;;;1.90;1.15;;;21.90;45.70;;;;;;5068605;28;20056;-62
2024/03/27 05:31:54;;;;;;;1.60;1.10;;;21.90;45.70;;;;;;5068992;28;20037;-62
2024/03/27 05:34:23;;;;;;;1.35;1.00;;;21.90;45.70;;;;;;5067943;28;20131;-62
2024/03/27 05:36:48;;;;;;;1.50;1.08;;;21.90;45.80;;;;;;5069333;28;20078;-62
2024/03/27 05:39:14;;;;;;;1.20;1.00;;;21.90;45.80;;;;;;5068912;28;20579;-62
2024/03/27 05:41:42;;;;;;;1.40;1.10;;;21.90;45.80;;;;;;5069146;28;20098;-62
2024/03/27 05:44:08;;;;;;;1.80;1.15;;;21.90;45.80;;;;;;5069018;28;20111;-62
2024/03/27 05:46:34;;;;;;;2.42;1.23;;;21.90;45.80;;;;;;5069063;28;20062;-62
2024/03/27 05:49:02;;;;;;;1.65;1.20;;;21.90;45.80;;;;;;5067895;28;20464;-62
2024/03/27 05:51:29;;;;;;;1.88;1.15;;;21.90;45.80;;;;;;5068909;28;20035;-62
2024/03/27 05:53:55;;;;;;;1.70;1.15;;;21.90;45.80;;;;;;5050562;28;20024;-62
2024/03/27 05:56:21;;;;;;;1.98;1.10;;;21.90;45.80;;;;;;5068879;28;20020;-62
2024/03/27 05:58:47;;;;;;;1.70;1.23;;;21.80;45.70;;;;;;5068780;28;20025;-62
2024/03/27 06:01:13;;;;;;;1.55;1.10;;;21.80;46.30;;;;;;5068887;28;20035;-62
2024/03/27 06:03:39;;;;;;;1.98;1.10;;;21.80;45.80;;;;;;5068068;28;20093;-63
2024/03/27 06:06:05;;;;;;;1.90;1.20;;;21.80;45.80;;;;;;5067435;28;20081;-62
2024/03/27 06:08:32;;;;;;;1.58;1.20;;;21.80;45.80;;;;;;5068803;28;20119;-62
2024/03/27 06:10:58;;;;;;;2.00;1.20;;;21.80;45.80;;;;;;5068200;28;20472;-62
2024/03/27 06:13:23;;;;;;;1.48;1.05;;;21.80;45.90;;;;;;5068618;28;20040;-62
2024/03/27 06:15:49;;;;;;;1.58;1.00;;;21.80;45.80;;;;;;5069083;28;20465;-61
2024/03/27 06:18:15;;;;;;;1.58;1.00;;;21.80;45.80;;;;;;5068579;28;20381;-62
2024/03/27 06:20:42;;;;;;;1.55;0.90;;;21.80;45.90;;;;;;5067600;28;20038;-62
2024/03/27 06:23:07;;;;;;;1.15;1.00;;;21.80;45.90;;;;;;5068631;28;20031;-62
2024/03/27 06:25:33;;;;;;;1.88;1.17;;;21.80;45.90;;;;;;5067422;28;20024;-62
2024/03/27 06:27:58;;;;;;;1.17;1.00;;;21.80;45.90;;;;;;5068682;28;20032;-62
2024/03/27 06:30:24;;;;;;;2.00;1.20;;;21.80;45.90;;;;;;5068522;28;20032;-62
2024/03/27 06:32:49;;;;;;;2.10;1.20;;;21.80;46.00;;;;;;5068625;28;20107;-61
2024/03/27 06:35:16;;;;;;;1.83;1.17;;;21.80;45.90;;;;;;5069406;28;20025;-62
2024/03/27 06:37:41;;;;;;;1.55;1.15;;;21.80;45.90;;;;;;5072092;28;20731;-62
2024/03/27 06:40:09;;;;;;;1.83;1.20;;;21.80;46.00;;;;;;5072595;28;20028;-61
2024/03/27 06:42:35;;;;;;;1.80;1.20;;;21.80;46.00;;;;;;5072984;28;20071;-61
2024/03/27 06:45:05;;;;;;;1.52;1.02;;;21.80;46.00;;;;;;5072616;28;20480;-62
2024/03/27 06:47:32;;;;;;;1.85;1.10;;;21.80;46.50;;;;;;5072204;28;20040;-61
2024/03/27 06:49:58;;;;;;;1.63;1.10;;;21.80;46.00;;;;;;5071453;28;20115;-62
2024/03/27 06:52:24;;;;;;;1.48;1.20;;;21.70;46.00;;;;;;5072627;28;20144;-62
2024/03/27 06:54:50;;;;;;;1.50;1.02;;;21.80;46.00;;;;;;5071872;28;20020;-63
2024/03/27 06:57:16;;;;;;;2.10;1.13;;;21.80;46.10;;;;;;5072135;28;20458;-63
2024/03/27 06:59:42;;;;;;;1.63;0.95;;;21.80;46.10;;;;;;5072271;28;20032;-62
2024/03/27 07:02:07;;;;;;;2.13;1.30;;;21.70;46.00;;;;;;5072256;28;20033;-62
2024/03/27 07:04:33;;;;;;;1.90;1.20;;;21.70;46.10;;;;;;5071235;28;20025;-62
2024/03/27 07:06:59;;;;;;;2.58;1.23;;;21.70;46.10;;;;;;5071998;28;20035;-62
2024/03/27 07:09:25;;;;;;;1.83;1.10;;;21.70;46.10;;;;;;5071495;28;20057;-61
2024/03/27 07:11:51;;;;;;;2.00;1.10;;;21.70;46.10;;;;;;5072458;28;20472;-61
2024/03/27 07:14:16;;;;;;;1.52;1.10;;;21.70;46.10;;;;;;5071736;28;20042;-63
2024/03/27 07:16:43;;;;;;;2.30;1.33;;;21.70;46.20;;;;;;5071979;28;20387;-62
2024/03/27 07:19:09;;;;;;;2.70;1.40;;;21.70;46.20;;;;;;5070893;28;20037;-63
2024/03/27 07:21:36;;;;;;;1.88;1.00;;;21.70;46.20;;;;;;5071901;28;20036;-61
2024/03/27 07:24:02;;;;;;;1.52;1.08;;;21.70;46.20;;;;;;5072063;28;20085;-62
2024/03/27 07:26:27;;;;;;;1.80;1.30;;;21.70;46.20;;;;;;5071575;28;20484;-62
2024/03/27 07:28:53;;;;;;;1.98;1.10;;;21.70;46.30;;;;;;5071433;28;20385;-62
2024/03/27 07:31:18;;;;;;;1.40;1.20;;;21.70;46.30;;;;;;5071703;28;20086;-61
2024/03/27 07:33:44;;;;;;;1.80;1.20;;;21.70;46.30;;;;;;5062919;28;20020;-61
2024/03/27 07:36:10;;;;;;;1.88;1.10;;;21.70;46.30;;;;;;5070721;28;20476;-62
2024/03/27 07:38:35;;;;;;;1.88;1.23;;;21.70;46.30;;;;;;5071538;28;20032;-63
2024/03/27 07:41:01;;;;;;;1.75;1.08;;;21.70;46.30;;;;;;5071342;28;20113;-62
2024/03/27 07:43:26;;;;;;;1.95;1.10;;;21.70;46.30;;;;;;5071696;28;20052;-63
2024/03/27 07:45:52;;;;;;;1.30;1.00;;;21.70;46.40;;;;;;5070950;28;20479;-62
2024/03/27 07:48:18;;;;;;;1.98;1.00;;;21.70;46.40;;;;;;5070841;28;20029;-62
2024/03/27 07:50:44;;;;;;;1.85;1.30;;;21.70;46.40;;;;;;5057045;28;20036;-64
2024/03/27 07:53:09;;;;;;;1.27;0.98;;;21.70;46.40;;;;;;5071452;28;20389;-65
2024/03/27 07:55:35;;;;;;;1.50;1.10;;;21.70;46.40;;;;;;5071126;28;20131;-65
2024/03/27 07:58:01;;;;;;;1.83;1.10;;;21.70;46.40;;;;;;5071357;28;20119;-65
2024/03/27 08:00:27;;;;;;;2.08;1.10;;;21.70;46.50;;;;;;5071380;28;20036;-61
2024/03/27 08:02:53;;;;;;;1.60;1.00;;;21.70;46.40;;;;;;5071358;28;20073;-62
2024/03/27 08:05:19;;;;;;;2.25;1.10;;;21.70;46.50;;;;;;5070498;28;20028;-60
2024/03/27 08:07:46;;;;;;;1.42;0.95;;;21.60;46.50;;;;;;5070909;28;20059;-61
2024/03/27 08:10:13;;;;;;;1.98;1.10;;;21.70;46.50;;;;;;5070860;28;20165;-62
2024/03/27 08:12:39;;;;;;;1.65;1.10;;;21.70;46.50;;;;;;5070976;28;20545;-62
2024/03/27 08:15:06;;;;;;;2.08;1.23;;;21.60;46.50;;;;;;5070625;28;20036;-62
2024/03/27 08:17:32;;;;;;;3.60;1.20;;;21.70;46.50;;;;;;5070610;28;20126;-61
2024/03/27 08:19:58;;;;;;;3.30;1.20;;;21.60;46.50;;;;;;5069357;28;20043;-62
2024/03/27 08:22:23;;;;;;;1.85;1.20;;;21.60;46.50;;;;;;5070546;28;20385;-61
2024/03/27 08:24:51;;;;;;;1.75;1.10;;;21.60;46.50;;;;;;5070429;28;20028;-62
2024/03/27 08:27:17;;;;;;;2.00;1.20;;;21.60;46.50;;;;;;5070776;28;20100;-62
2024/03/27 08:29:42;;;;;;;2.35;1.15;;;21.60;46.50;;;;;;5070585;28;20472;-61
2024/03/27 08:32:08;;;;;;;1.67;0.95;;;21.60;46.50;;;;;;5070617;28;20032;-61
2024/03/27 08:34:34;;;;;;;1.60;0.95;;;21.60;46.50;;;;;;5069573;28;20452;-61
2024/03/27 08:37:00;;;;;;;1.55;1.10;;;21.60;46.50;;;;;;5051550;28;20071;-61
2024/03/27 08:39:26;;;;;;;1.63;1.00;;;21.70;46.60;;;;;;5070156;28;20021;-61
2024/03/27 08:41:54;;;;;;;1.70;1.00;;;21.60;46.60;;;;;;5069748;28;20102;-62
2024/03/27 08:44:20;;;;;;;1.95;1.17;;;21.60;46.60;;;;;;5070459;28;20028;-61
2024/03/27 08:46:45;;;;;;;2.33;1.00;;;21.60;46.60;;;;;;5069919;28;20118;-62
2024/03/27 08:49:13;;;;;;;1.83;1.17;;;21.60;46.60;;;;;;5069276;28;20559;-62
2024/03/27 08:51:39;;;;;;;1.25;0.90;;;21.60;46.60;;;;;;5068731;28;20389;-62
2024/03/27 08:54:05;;;;;;;2.08;1.15;;;21.60;46.60;;;;;;5069940;28;20104;-62
2024/03/27 08:56:30;;;;;;;1.70;1.10;;;21.60;46.60;;;;;;5069503;28;20147;-62
2024/03/27 08:58:56;;;;;;;1.80;1.25;;;21.60;46.70;;;;;;5069584;28;20028;-62
2024/03/27 09:01:22;;;;;;;1.42;1.00;;;21.60;46.70;;;;;;5070187;28;20488;-62
2024/03/27 09:03:47;;;;;;;1.30;1.00;;;21.60;46.70;;;;;;5069670;28;20111;-62
2024/03/27 09:06:14;;;;;;;2.83;1.13;;;21.60;46.70;;;;;;5068141;28;20037;-62
2024/03/27 09:08:40;;;;;;;1.55;1.15;;;21.60;46.70;;;;;;5069632;28;20025;-62
2024/03/27 09:11:09;;;;;;;1.58;1.05;;;21.60;46.70;;;;;;5069104;28;20044;-64
2024/03/27 09:13:35;;;;;;;2.50;1.20;;;21.60;47.20;;;;;;5069338;28;20028;-65
2024/03/27 09:16:03;;;;;;;1.88;1.00;;;21.60;46.80;;;;;;5069577;28;20035;-65
2024/03/27 09:18:29;;;;;;;1.77;1.10;;;21.60;46.70;;;;;;5069450;28;20101;-64
2024/03/27 09:21:00;;;;;;;1.58;1.00;;;21.60;46.70;;;;;;5068401;28;20108;-65
2024/03/27 09:23:27;;;;;;;1.60;1.08;;;21.60;46.70;;;;;;5069293;28;20025;-65
2024/03/27 09:26:03;;;;;;;1.77;0.98;;;21.60;46.70;;;;;;5068867;28;20099;-65
2024/03/27 09:28:29;;;;;;;1.88;1.20;;;21.60;46.80;;;;;;5068009;28;20147;-64
2024/03/27 09:30:56;;;;;;;2.33;1.10;;;21.50;46.80;;;;;;5069235;28;20424;-64
2024/03/27 09:33:25;;;;;;;2.25;1.10;;;21.60;46.90;;;;;;5069164;28;20392;-64
2024/03/27 09:35:51;;;;;;;1.92;1.00;;;21.60;46.90;;;;;;5067801;28;20025;-64
2024/03/27 09:38:17;;;;;;;1.67;1.00;;;21.50;46.80;;;;;;5068895;28;20036;-64
2024/03/27 09:40:48;;;;;;;1.63;1.02;;;21.60;46.90;;;;;;5068103;28;20028;-65
2024/03/27 09:43:15;;;;;;;2.45;1.23;;;21.60;47.00;;;;;;5059646;28;20028;-64
2024/03/27 09:45:45;;;;;;;2.15;1.05;;;21.60;47.00;;;;;;5069068;28;20044;-64
2024/03/27 09:48:13;;;;;;;1.75;1.00;;;21.50;46.90;;;;;;5068990;28;20052;-65
2024/03/27 09:50:38;;;;;;;1.50;1.08;;;21.60;47.00;;;;;;5068306;28;20468;-64
2024/03/27 09:53:06;;;;;;;2.17;1.20;;;21.60;47.00;;;;;;5069014;28;20028;-64
2024/03/27 09:55:33;;;;;;;2.60;1.20;;;21.60;47.00;;;;;;5068958;28;20016;-65
2024/03/27 09:58:03;;;;;;;1.55;1.00;;;21.60;47.00;;;;;;5068704;28;20127;-64
2024/03/27 10:00:28;;;;;;;;;;;21.60;47.10;;;;;;5069606;28;20480;-65
2024/03/27 10:02:54;;;;;;;2.40;1.30;;;21.60;47.10;;;;;;5069100;28;19908;-64
2024/03/27 10:05:25;;;;;;;1.50;1.10;;;21.60;47.20;;;;;;5067662;28;20139;-64
2024/03/27 10:07:50;;;;;;;2.65;1.33;;;21.60;47.10;;;;;;5068633;28;20028;-65
2024/03/27 10:10:19;;;;;;;1.80;1.25;;;21.60;47.20;;;;;;5068013;28;20111;-62
2024/03/27 10:12:45;;;;;;;1.60;1.05;;;21.60;47.20;;;;;;5068603;28;20020;-62
2024/03/27 10:15:11;;;;;;;2.28;1.15;;;21.60;47.20;;;;;;5068558;28;20036;-62
2024/03/27 10:17:37;;;;;;;2.22;1.25;;;21.60;47.20;;;;;;5068980;28;20032;-62
2024/03/27 10:20:05;;;;;;;1.88;1.10;;;21.60;47.20;;;;;;5058890;28;20035;-62
2024/03/27 10:22:34;;;;;;;1.80;1.10;;;21.60;47.30;;;;;;5067502;28;20036;-61
2024/03/27 10:25:02;;;;;;;1.55;1.10;;;21.60;47.30;;;;;;5068496;28;20040;-61
2024/03/27 10:27:29;;;;;;;1.90;1.20;;;21.70;47.40;;;;;;5068048;28;20127;-61
2024/03/27 10:29:55;;;;;;;1.90;0.98;;;21.70;48.00;;;;;;5068995;28;20024;-61
2024/03/27 10:32:22;;;;;;;1.80;1.10;;;21.70;47.50;;;;;;5067642;28;20037;-62
2024/03/27 10:34:51;;;;;;;2.28;1.20;;;21.70;47.50;;;;;;5068704;28;20503;-62
2024/03/27 10:37:18;;;;;;;2.20;1.10;;;21.70;47.50;;;;;;5067570;28;20597;-62
2024/03/27 10:39:48;;;;;;;1.45;0.90;;;21.70;47.60;;;;;;5068567;28;20082;-61
2024/03/27 10:42:22;;;;;;;2.20;1.20;;;21.70;47.80;;;;;;5068192;28;20031;-62
2024/03/27 10:44:49;;;;;;;1.60;1.08;;;21.70;47.60;;;;;;5050448;28;20131;-62
2024/03/27 10:47:18;;;;;;;1.23;0.82;;;21.70;47.60;;;;;;5068382;28;20031;-61
2024/03/27 10:49:45;;;;;;;;;;;21.70;47.60;;;;;;5068718;28;20039;-61
2024/03/27 10:52:13;;;;;;;2.45;1.00;;;21.80;47.80;;;;;;5049392;28;19908;-62
2024/03/27 10:54:41;;;;;;;2.22;1.08;;;21.80;47.70;;;;;;5068511;28;20476;-62
2024/03/27 10:57:07;;;;;;;1.42;0.90;;;21.80;47.70;;;;;;5068219;28;20035;-62
2024/03/27 10:59:34;;;;;;;1.45;1.10;;;21.80;47.70;;;;;;5068544;28;20033;-62
2024/03/27 11:02:07;;;;;;;2.22;1.30;;;21.80;47.70;;;;;;5068174;28;20389;-62
2024/03/27 11:04:33;;;;;;;2.22;1.00;;;21.80;47.70;;;;;;5068311;28;20070;-62
2024/03/27 11:06:59;;;;;;;3.05;1.20;;;21.80;47.70;;;;;;5067385;28;20036;-63
2024/03/27 11:09:24;;;;;;;1.85;1.15;;;21.80;47.70;;;;;;5068406;28;20064;-62
2024/03/27 11:11:51;;;;;;;1.70;1.00;;;21.80;47.70;;;;;;5068248;28;20036;-62
2024/03/27 11:14:23;;;;;;;1.08;0.88;;;21.90;47.80;;;;;;5067836;28;20120;-62
2024/03/27 11:16:52;;;;;;;1.75;1.00;;;21.90;47.80;;;;;;5067756;28;20186;-62
2024/03/27 11:19:32;;;;;;;1.40;0.90;;;21.90;47.70;;;;;;5068228;28;20028;-62
2024/03/27 11:22:12;;;;;;;1.40;0.90;;;21.90;47.80;;;;;;5069352;28;20047;-62
2024/03/27 11:24:38;;;;;;;1.73;1.10;;;21.90;47.80;;;;;;5071624;28;20535;-62
2024/03/27 11:27:04;;;;;;;2.38;1.10;;;21.90;47.80;;;;;;5071074;28;20119;-63
2024/03/27 11:29:31;;;;;;;1.65;1.00;;;21.90;47.80;;;;;;5071628;28;20961;-63
2024/03/27 11:31:59;;;;;;;1.60;0.95;;;21.90;47.80;;;;;;5071321;28;20068;-63
2024/03/27 11:34:25;;;;;;;1.52;0.90;;;22.00;47.80;;;;;;5071361;28;20016;-64
2024/03/27 11:36:51;;;;;;;1.55;0.90;;;22.00;47.80;;;;;;5070050;28;20535;-63
2024/03/27 11:39:17;;;;;;;1.80;0.90;;;22.00;47.80;;;;;;5071256;28;20496;-63
2024/03/27 11:41:43;;;;;;;1.55;1.00;;;22.00;47.90;;;;;;5071252;28;20059;-64
2024/03/27 11:44:09;;;;;;;1.70;1.10;;;22.00;47.90;;;;;;5071530;28;20177;-63
2024/03/27 11:46:34;;;;;;;1.73;1.10;;;22.10;47.90;;;;;;5071499;28;20439;-63
2024/03/27 11:49:02;;;;;;;1.55;1.00;;;22.10;48.00;;;;;;5071497;28;20063;-64
2024/03/27 11:51:28;;;;;;;2.15;1.20;;;22.10;47.90;;;;;;5070660;28;20952;-63
2024/03/27 11:53:53;;;;;;;1.95;1.10;;;22.10;48.00;;;;;;5071689;28;20388;-63
2024/03/27 11:56:21;;;;;;;2.67;1.00;;;22.10;47.90;;;;;;5071308;28;20079;-63
2024/03/27 11:58:47;;;;;;;1.67;1.00;;;22.10;47.90;;;;;;5045457;28;20726;-63
2024/03/27 12:01:13;;;;;;;1.65;1.00;;;22.10;47.90;;;;;;5071071;28;20048;-63
2024/03/27 12:03:39;;;;;;;2.08;1.10;;;22.10;47.80;;;;;;5071215;28;20476;-64
2024/03/27 12:06:05;;;;;;;1.48;1.00;;;22.10;47.90;;;;;;5070950;28;20030;-63
2024/03/27 12:08:32;;;;;;;2.00;1.00;;;22.10;47.80;;;;;;5069821;28;20043;-64
2024/03/27 12:10:58;;;;;;;1.25;0.80;;;22.10;47.80;;;;;;5070899;28;20043;-63
2024/03/27 12:13:23;;;;;;;1.10;0.90;;;22.10;47.70;;;;;;5070811;28;20343;-64
2024/03/27 12:15:51;;;;;;;1.73;1.00;;;22.10;47.80;;;;;;5070942;28;20421;-63
2024/03/27 12:18:17;;;;;;;1.55;0.90;;;22.20;47.70;;;;;;5070865;28;20540;-63
2024/03/27 12:20:42;;;;;;;1.33;0.90;;;22.10;47.70;;;;;;5070935;28;20111;-63
2024/03/27 12:23:08;;;;;;;1.75;1.00;;;22.20;47.70;;;;;;5069919;28;20507;-64
2024/03/27 12:25:33;;;;;;;1.55;1.00;;;22.20;47.70;;;;;;5070864;28;20059;-63
2024/03/27 12:28:06;;;;;;;1.50;1.00;;;22.20;47.70;;;;;;5070368;28;20494;-63
2024/03/27 12:30:37;;;;;;;2.00;1.10;;;22.20;47.70;;;;;;5069985;28;20031;-66
2024/03/27 12:33:03;;;;;;;1.98;1.00;;;22.20;47.60;;;;;;5069777;28;20471;-65
2024/03/27 12:35:28;;;;;;;1.65;1.02;;;22.20;47.60;;;;;;5070740;28;20111;-65
2024/03/27 12:37:54;;;;;;;2.13;1.00;;;22.20;47.60;;;;;;5069230;28;20072;-66
2024/03/27 12:40:20;;;;;;;1.23;0.80;;;22.20;47.60;;;;;;5070263;28;20474;-62
2024/03/27 12:42:46;;;;;;;1.75;1.15;;;22.20;47.60;;;;;;5070375;28;20025;-62